createdAt,value
2018-07-17T00:02:16.252Z,95.63
2018-07-17T00:04:46.214Z,95.51
2018-07-17T00:07:15.327Z,94.95
2018-07-17T00:09:45.036Z,94.98
2018-07-17T00:12:14.365Z,95.28
2018-07-17T00:14:44.655Z,95.08
2018-07-17T00:17:13.855Z,95.77
2018-07-17T00:19:43.364Z,95.24
2018-07-17T00:22:12.834Z,95.86
2018-07-17T00:24:42.206Z,95.19
2018-07-17T00:27:11.578Z,95.11
2018-07-17T00:29:41.059Z,95.30
2018-07-17T00:32:10.209Z,95.15
2018-07-17T00:34:39.660Z,95.00
2018-07-17T00:37:08.779Z,95.31
2018-07-17T00:39:38.258Z,95.29
2018-07-17T00:42:08.262Z,96.12
2018-07-17T00:44:37.784Z,95.36
2018-07-17T00:47:07.733Z,95.46
2018-07-17T00:49:37.309Z,95.80
2018-07-17T00:52:07.379Z,96.01
2018-07-17T00:54:36.912Z,95.74
2018-07-17T00:57:06.358Z,95.59
2018-07-17T00:59:35.845Z,95.35
2018-07-17T01:02:10.420Z,95.79
2018-07-17T01:04:45.127Z,95.12
2018-07-17T01:07:19.702Z,95.05
2018-07-17T01:09:54.215Z,95.33
2018-07-17T01:12:22.800Z,96.09
2018-07-17T01:14:57.264Z,95.63
2018-07-17T01:17:27.182Z,95.32
2018-07-17T01:19:56.637Z,95.94
2018-07-17T01:22:26.123Z,96.06
2018-07-17T01:24:55.527Z,95.84
2018-07-17T01:27:24.998Z,95.34
2018-07-17T01:29:54.461Z,95.65
2018-07-17T01:32:23.970Z,94.97
2018-07-17T01:34:53.679Z,95.12
2018-07-17T01:37:23.168Z,95.33
2018-07-17T01:39:52.886Z,95.15
2018-07-17T01:42:22.355Z,94.94
2018-07-17T01:44:51.878Z,95.42
2018-07-17T01:47:21.363Z,95.74
2018-07-17T01:49:50.549Z,94.95
2018-07-17T01:52:20.014Z,95.58
2018-07-17T01:54:49.397Z,95.53
2018-07-17T01:57:18.858Z,95.58
2018-07-17T01:59:49.263Z,94.97
2018-07-17T02:02:18.660Z,95.30
2018-07-17T02:04:48.158Z,95.81
2018-07-17T02:07:17.558Z,95.08
2018-07-17T02:09:46.954Z,95.29
2018-07-17T02:12:16.394Z,94.97
2018-07-17T02:14:45.841Z,95.26
2018-07-17T02:17:14.996Z,95.34
2018-07-17T02:19:44.467Z,94.75
2018-07-17T02:22:13.887Z,95.14
2018-07-17T02:24:43.779Z,95.22
2018-07-17T02:27:13.216Z,94.64
2018-07-17T02:29:42.565Z,95.30
2018-07-17T02:32:11.740Z,94.76
2018-07-17T02:34:41.139Z,94.85
2018-07-17T02:37:10.559Z,95.51
2018-07-17T02:39:40.014Z,95.41
2018-07-17T02:42:09.469Z,95.12
2018-07-17T02:44:38.900Z,95.47
2018-07-17T02:47:08.350Z,95.20
2018-07-17T02:49:37.829Z,95.38
2018-07-17T02:52:07.249Z,95.58
2018-07-17T02:54:36.682Z,94.84
2018-07-17T02:57:06.702Z,95.11
2018-07-17T02:59:36.626Z,95.19
2018-07-17T03:02:06.087Z,95.21
2018-07-17T03:04:35.552Z,95.15
2018-07-17T03:07:04.754Z,95.22
2018-07-17T03:09:34.173Z,95.30
2018-07-17T03:12:03.350Z,95.87
2018-07-17T03:14:32.826Z,95.69
2018-07-17T03:17:03.347Z,95.60
2018-07-17T03:19:32.891Z,94.94
2018-07-17T03:22:02.324Z,95.03
2018-07-17T03:24:31.767Z,94.91
2018-07-17T03:27:01.200Z,94.56
2018-07-17T03:29:30.621Z,94.31
2018-07-17T03:32:00.128Z,94.15
2018-07-17T03:34:29.630Z,93.78
2018-07-17T03:36:58.761Z,93.75
2018-07-17T03:39:28.154Z,94.15
2018-07-17T03:41:58.706Z,94.01
2018-07-17T03:44:28.206Z,94.07
2018-07-17T03:46:57.730Z,93.92
2018-07-17T03:49:27.192Z,93.91
2018-07-17T03:51:56.610Z,93.49
2018-07-17T03:54:26.221Z,93.34
2018-07-17T03:56:55.352Z,93.06
2018-07-17T03:59:24.925Z,93.19
2018-07-17T04:01:54.384Z,93.78
2018-07-17T04:04:23.863Z,93.57
2018-07-17T04:06:53.256Z,94.41
2018-07-17T04:09:22.709Z,93.98
2018-07-17T04:11:52.148Z,94.29
2018-07-17T04:14:22.110Z,94.85
2018-07-17T04:16:53.844Z,94.48
2018-07-17T04:19:24.959Z,93.99
2018-07-17T04:21:55.000Z,93.78
2018-07-17T04:24:24.801Z,94.29
2018-07-17T04:26:54.850Z,93.72
2018-07-17T04:29:24.274Z,94.13
2018-07-17T04:31:53.718Z,94.22
2018-07-17T04:34:23.187Z,94.61
2018-07-17T04:36:52.618Z,94.69
2018-07-17T04:39:22.109Z,94.88
2018-07-17T04:41:51.538Z,95.11
2018-07-17T04:44:20.734Z,95.25
2018-07-17T04:46:50.177Z,95.82
2018-07-17T04:49:19.619Z,96.17
2018-07-17T04:51:49.052Z,96.29
2018-07-17T04:54:18.224Z,96.37
2018-07-17T04:56:47.609Z,96.47
2018-07-17T04:59:17.078Z,96.19
2018-07-17T05:01:46.561Z,96.45
2018-07-17T05:04:16.015Z,96.39
2018-07-17T05:06:45.478Z,96.53
2018-07-17T05:09:14.626Z,97.09
2018-07-17T05:11:44.114Z,96.70
2018-07-17T05:14:13.601Z,96.77
2018-07-17T05:16:43.098Z,97.51
2018-07-17T05:19:12.529Z,97.08
2018-07-17T05:21:42.491Z,97.85
2018-07-17T05:24:11.947Z,97.96
2018-07-17T05:26:41.391Z,97.80
2018-07-17T05:29:10.860Z,97.96
2018-07-17T05:31:40.341Z,98.71
2018-07-17T05:34:09.500Z,98.78
2018-07-17T05:36:38.974Z,98.69
2018-07-17T05:39:09.699Z,98.22
2018-07-17T05:41:39.360Z,98.08
2018-07-17T05:44:08.801Z,97.65
2018-07-17T05:46:38.327Z,96.89
2018-07-17T05:49:07.746Z,96.66
2018-07-17T05:51:37.174Z,97.26
2018-07-17T05:54:06.682Z,96.90
2018-07-17T05:56:36.147Z,97.29
2018-07-17T05:59:05.320Z,97.77
2018-07-17T06:01:34.792Z,97.25
2018-07-17T06:04:04.239Z,97.83
2018-07-17T06:06:33.705Z,97.18
2018-07-17T06:09:03.146Z,97.88
2018-07-17T06:11:32.594Z,97.90
2018-07-17T06:14:02.006Z,97.84
2018-07-17T06:16:31.451Z,97.56
2018-07-17T06:19:00.980Z,98.07
2018-07-17T06:21:30.082Z,97.35
2018-07-17T06:23:59.260Z,97.30
2018-07-17T06:26:28.767Z,97.32
2018-07-17T06:28:58.183Z,96.63
2018-07-17T06:31:27.696Z,96.26
2018-07-17T06:33:57.147Z,96.46
2018-07-17T06:36:26.626Z,96.85
2018-07-17T06:38:56.209Z,96.32
2018-07-17T06:41:25.661Z,96.91
2018-07-17T06:43:55.115Z,96.75
2018-07-17T06:46:24.527Z,96.81
2018-07-17T06:48:54.000Z,96.93
2018-07-17T06:51:23.516Z,95.96
2018-07-17T06:53:52.931Z,96.55
2018-07-17T06:56:22.398Z,95.42
2018-07-17T06:58:51.867Z,96.02
2018-07-17T07:01:21.289Z,95.41
2018-07-17T07:03:50.704Z,95.43
2018-07-17T07:06:20.148Z,95.43
2018-07-17T07:08:49.594Z,96.14
2018-07-17T07:11:19.068Z,95.95
2018-07-17T07:13:48.476Z,95.72
2018-07-17T07:16:17.563Z,95.38
2018-07-17T07:18:47.003Z,96.71
2018-07-17T07:21:16.509Z,95.61
2018-07-17T07:23:45.893Z,96.02
2018-07-17T07:26:15.313Z,95.73
2018-07-17T07:28:44.724Z,95.58
2018-07-17T07:31:14.179Z,96.10
2018-07-17T07:33:43.284Z,95.84
2018-07-17T07:36:12.814Z,96.22
2018-07-17T07:38:41.906Z,95.43
2018-07-17T07:41:11.376Z,95.38
2018-07-17T07:43:40.828Z,95.70
2018-07-17T07:46:10.414Z,95.71
2018-07-17T07:48:39.855Z,95.30
2018-07-17T07:51:09.340Z,95.81
2018-07-17T07:53:38.864Z,94.65
2018-07-17T07:56:08.290Z,93.97
2018-07-17T07:58:37.657Z,93.95
2018-07-17T08:01:07.140Z,93.09
2018-07-17T08:03:36.692Z,93.96
2018-07-17T08:06:06.146Z,93.88
2018-07-17T08:08:35.568Z,95.74
2018-07-17T08:11:04.708Z,95.27
2018-07-17T08:13:34.114Z,95.18
2018-07-17T08:16:03.591Z,95.14
2018-07-17T08:18:33.026Z,95.20
2018-07-17T08:21:02.491Z,95.76
2018-07-17T08:23:31.879Z,96.21
2018-07-17T08:26:02.026Z,95.93
2018-07-17T08:28:31.482Z,95.52
2018-07-17T08:31:00.854Z,95.09
2018-07-17T08:33:30.254Z,94.70
2018-07-17T08:35:59.725Z,94.23
2018-07-17T08:38:29.231Z,94.27
2018-07-17T08:40:58.659Z,94.31
2018-07-17T08:43:28.187Z,94.40
2018-07-17T08:45:57.569Z,94.32
2018-07-17T08:48:26.731Z,94.18
2018-07-17T08:50:56.144Z,94.29
2018-07-17T08:53:25.751Z,92.57
2018-07-17T08:55:55.262Z,91.96
2018-07-17T08:58:24.711Z,89.93
2018-07-17T09:00:54.227Z,88.94
2018-07-17T09:03:23.742Z,87.59
2018-07-17T09:05:53.219Z,86.43
2018-07-17T09:08:22.666Z,85.29
2018-07-17T09:10:52.139Z,84.89
2018-07-17T09:13:21.645Z,84.30
2018-07-17T09:15:51.088Z,83.46
2018-07-17T09:18:20.543Z,82.85
2018-07-17T09:20:49.942Z,80.85
2018-07-17T09:23:19.110Z,80.41
2018-07-17T09:25:48.592Z,80.98
2018-07-17T09:28:18.086Z,77.74
2018-07-17T09:30:52.510Z,73.70
2018-07-17T09:33:21.974Z,71.38
2018-07-17T09:35:51.123Z,68.76
2018-07-17T09:38:20.529Z,69.68
2018-07-17T09:40:49.950Z,70.36
2018-07-17T09:43:19.387Z,70.83
2018-07-17T09:45:49.127Z,67.97
2018-07-17T09:48:18.645Z,61.49
2018-07-17T09:50:48.058Z,58.14
2018-07-17T09:53:17.479Z,60.01
2018-07-17T09:55:47.391Z,64.92
2018-07-17T09:58:17.391Z,58.57
2018-07-17T10:00:51.833Z,58.81
2018-07-17T10:03:21.227Z,57.79
2018-07-17T10:05:50.701Z,57.22
2018-07-17T10:08:20.230Z,57.82
2018-07-17T10:10:49.832Z,59.26
2018-07-17T10:13:19.309Z,53.30
2018-07-17T10:15:48.719Z,60.85
2018-07-17T10:18:18.187Z,56.50
2018-07-17T10:20:47.682Z,57.85
2018-07-17T10:23:17.270Z,57.41
2018-07-17T10:25:46.718Z,61.24
2018-07-17T10:28:16.162Z,62.91
2018-07-17T10:30:45.600Z,62.96
2018-07-17T10:33:15.069Z,60.87
2018-07-17T10:35:44.534Z,58.98
2018-07-17T10:38:13.941Z,61.04
2018-07-17T10:40:43.362Z,52.80
2018-07-17T10:43:12.863Z,52.15
2018-07-17T10:45:42.014Z,50.54
2018-07-17T10:48:11.492Z,55.56
2018-07-17T10:50:40.942Z,54.21
2018-07-17T10:53:10.428Z,55.49
2018-07-17T10:55:39.946Z,51.91
2018-07-17T10:58:09.900Z,52.17
2018-07-17T11:00:39.295Z,54.71
2018-07-17T11:03:09.079Z,51.32
2018-07-17T11:05:38.504Z,46.13
2018-07-17T11:08:08.094Z,50.06
2018-07-17T11:10:37.522Z,47.90
2018-07-17T11:13:07.033Z,47.60
2018-07-17T11:15:36.465Z,47.88
2018-07-17T11:18:05.959Z,44.88
2018-07-17T11:20:35.449Z,48.90
2018-07-17T11:23:04.937Z,44.69
2018-07-17T11:25:34.391Z,48.25
2018-07-17T11:28:03.587Z,50.52
2018-07-17T11:30:33.057Z,44.96
2018-07-17T11:33:02.528Z,45.40
2018-07-17T11:35:31.923Z,48.30
2018-07-17T11:38:01.373Z,44.69
2018-07-17T11:40:30.802Z,49.04
2018-07-17T11:42:59.937Z,48.65
2018-07-17T11:45:29.332Z,50.09
2018-07-17T11:47:58.773Z,47.02
2018-07-17T11:50:28.221Z,45.06
2018-07-17T11:52:57.599Z,45.09
2018-07-17T11:55:27.045Z,48.23
2018-07-17T11:57:56.456Z,43.60
2018-07-17T12:00:25.961Z,46.35
2018-07-17T12:02:55.632Z,45.98
2018-07-17T12:05:25.120Z,48.48
2018-07-17T12:07:54.684Z,49.93
2018-07-17T12:10:24.118Z,50.92
2018-07-17T12:12:53.732Z,49.24
2018-07-17T12:15:23.200Z,45.54
2018-07-17T12:17:52.657Z,49.35
2018-07-17T12:20:22.346Z,47.04
2018-07-17T12:22:51.721Z,46.78
2018-07-17T12:25:21.169Z,50.73
2018-07-17T12:27:50.726Z,45.37
2018-07-17T12:30:20.261Z,47.14
2018-07-17T12:32:49.794Z,45.01
2018-07-17T12:35:20.149Z,45.43
2018-07-17T12:37:49.595Z,47.15
2018-07-17T12:40:19.106Z,47.90
2018-07-17T12:42:48.596Z,48.20
2018-07-17T12:45:18.006Z,48.80
2018-07-17T12:47:47.472Z,51.32
2018-07-17T12:50:16.693Z,50.15
2018-07-17T12:52:46.150Z,51.49
2018-07-17T12:55:15.569Z,56.05
2018-07-17T12:57:45.006Z,50.83
2018-07-17T13:00:14.458Z,54.72
2018-07-17T13:02:44.030Z,56.45
2018-07-17T13:05:13.166Z,55.49
2018-07-17T13:07:42.598Z,55.57
2018-07-17T13:10:12.082Z,53.55
2018-07-17T13:12:41.538Z,49.66
2018-07-17T13:15:11.072Z,49.30
2018-07-17T13:17:40.600Z,53.77
2018-07-17T13:20:10.023Z,52.14
2018-07-17T13:22:39.459Z,55.71
2018-07-17T13:25:08.990Z,54.50
2018-07-17T13:27:38.456Z,54.82
2018-07-17T13:30:08.271Z,55.46
2018-07-17T13:32:37.749Z,56.89
2018-07-17T13:35:07.189Z,53.61
2018-07-17T13:37:36.572Z,51.08
2018-07-17T13:40:06.326Z,50.43
2018-07-17T13:42:35.732Z,54.08
2018-07-17T13:45:05.667Z,51.59
2018-07-17T13:47:35.066Z,51.07
2018-07-17T13:50:04.940Z,50.70
2018-07-17T13:52:34.488Z,52.16
2018-07-17T13:55:03.949Z,49.98
2018-07-17T13:57:33.100Z,54.96
2018-07-17T14:00:02.545Z,51.86
2018-07-17T14:02:32.029Z,51.19
2018-07-17T14:05:01.509Z,51.77
2018-07-17T14:07:30.942Z,52.05
2018-07-17T14:10:00.391Z,55.88
2018-07-17T14:12:29.844Z,54.51
2018-07-17T14:14:59.257Z,47.46
2018-07-17T14:17:28.857Z,47.85
2018-07-17T14:19:57.954Z,49.52
2018-07-17T14:22:27.446Z,50.70
2018-07-17T14:24:56.959Z,51.31
2018-07-17T14:27:26.507Z,51.72
2018-07-17T14:29:55.951Z,52.67
2018-07-17T14:32:25.604Z,54.70
2018-07-17T14:34:55.091Z,54.54
2018-07-17T14:37:24.564Z,49.03
2018-07-17T14:39:54.052Z,51.41
2018-07-17T14:42:23.209Z,49.10
2018-07-17T14:44:52.661Z,48.83
2018-07-17T14:47:22.098Z,51.91
2018-07-17T14:49:51.511Z,53.54
2018-07-17T14:52:20.981Z,52.93
2018-07-17T14:54:50.532Z,49.67
2018-07-17T14:57:20.004Z,48.46
2018-07-17T14:59:49.436Z,49.53
2018-07-17T15:02:18.925Z,49.71
2018-07-17T15:04:48.335Z,51.37
2018-07-17T15:07:17.765Z,51.85
2018-07-17T15:09:47.256Z,52.03
2018-07-17T15:12:16.657Z,50.31
2018-07-17T15:14:46.116Z,50.61
2018-07-17T15:17:15.290Z,50.29
2018-07-17T15:19:44.759Z,49.76
2018-07-17T15:22:14.225Z,52.98
2018-07-17T15:24:43.642Z,49.97
2018-07-17T15:27:13.078Z,51.84
2018-07-17T15:29:42.484Z,51.30
2018-07-17T15:32:11.992Z,50.76
2018-07-17T15:34:41.378Z,50.33
2018-07-17T15:37:10.855Z,50.74
2018-07-17T15:39:40.290Z,51.78
2018-07-17T15:42:10.228Z,51.32
2018-07-17T15:44:39.739Z,52.19
2018-07-17T15:47:09.223Z,51.13
2018-07-17T15:49:38.659Z,51.79
2018-07-17T15:52:08.226Z,55.07
2018-07-17T15:54:37.664Z,55.43
2018-07-17T15:57:07.272Z,55.23
2018-07-17T15:59:36.814Z,52.36
2018-07-17T16:02:06.371Z,51.43
2018-07-17T16:04:35.829Z,51.31
2018-07-17T16:07:04.993Z,51.25
2018-07-17T16:09:34.609Z,53.18
2018-07-17T16:12:04.097Z,51.11
2018-07-17T16:14:33.855Z,52.32
2018-07-17T16:17:03.189Z,52.45
2018-07-17T16:19:32.660Z,52.39
2018-07-17T16:22:02.190Z,53.57
2018-07-17T16:24:31.693Z,54.19
2018-07-17T16:27:01.165Z,52.91
2018-07-17T16:29:30.696Z,51.89
2018-07-17T16:31:59.846Z,51.70
2018-07-17T16:34:29.330Z,50.99
2018-07-17T16:36:59.039Z,51.01
2018-07-17T16:39:28.475Z,50.73
2018-07-17T16:41:57.991Z,50.65
2018-07-17T16:44:27.391Z,53.54
2018-07-17T16:46:56.873Z,52.38
2018-07-17T16:49:26.382Z,52.56
2018-07-17T16:51:55.507Z,53.63
2018-07-17T16:54:24.919Z,55.94
2018-07-17T16:56:54.566Z,54.39
2018-07-17T16:59:25.015Z,56.15
2018-07-17T17:01:54.445Z,57.76
2018-07-17T17:04:24.034Z,57.78
2018-07-17T17:06:53.519Z,57.26
2018-07-17T17:09:22.922Z,58.25
2018-07-17T17:11:52.332Z,57.20
2018-07-17T17:14:21.789Z,57.59
2018-07-17T17:16:51.426Z,57.53
2018-07-17T17:19:20.609Z,57.74
2018-07-17T17:21:50.076Z,57.33
2018-07-17T17:24:19.648Z,57.18
2018-07-17T17:26:48.897Z,53.17
2018-07-17T17:29:18.364Z,55.89
2018-07-17T17:31:47.886Z,58.22
2018-07-17T17:34:17.300Z,58.05
2018-07-17T17:36:46.756Z,58.44
2018-07-17T17:39:16.177Z,59.07
2018-07-17T17:41:45.634Z,59.66
2018-07-17T17:44:15.073Z,62.05
2018-07-17T17:46:44.536Z,63.31
2018-07-17T17:49:14.165Z,64.70
2018-07-17T17:51:43.633Z,64.51
2018-07-17T17:54:13.156Z,64.32
2018-07-17T17:56:42.600Z,64.50
2018-07-17T17:59:12.038Z,64.94
2018-07-17T18:01:41.484Z,65.28
2018-07-17T18:04:10.918Z,65.42
2018-07-17T18:06:40.068Z,65.12
2018-07-17T18:09:09.578Z,66.08
2018-07-17T18:11:39.206Z,66.22
2018-07-17T18:14:08.813Z,66.02
2018-07-17T18:16:38.344Z,66.81
2018-07-17T18:19:07.803Z,67.71
2018-07-17T18:21:37.273Z,67.91
2018-07-17T18:24:06.430Z,67.79
2018-07-17T18:26:35.924Z,68.31
2018-07-17T18:29:05.470Z,67.58
2018-07-17T18:31:34.834Z,68.83
2018-07-17T18:34:04.394Z,69.32
2018-07-17T18:36:33.634Z,69.34
2018-07-17T18:39:03.179Z,68.96
2018-07-17T18:41:32.596Z,69.28
2018-07-17T18:44:01.752Z,69.95
2018-07-17T18:46:31.298Z,70.17
2018-07-17T18:49:00.730Z,71.07
2018-07-17T18:51:31.155Z,70.79
2018-07-17T18:54:01.213Z,71.72
2018-07-17T18:56:30.695Z,70.26
2018-07-17T18:59:00.157Z,67.97
2018-07-17T19:01:29.558Z,68.69
2018-07-17T19:03:59.050Z,70.65
2018-07-17T19:06:28.445Z,71.13
2018-07-17T19:08:57.904Z,71.38
2018-07-17T19:11:27.428Z,71.45
2018-07-17T19:13:56.634Z,72.21
2018-07-17T19:16:26.126Z,72.45
2018-07-17T19:18:55.541Z,72.20
2018-07-17T19:21:25.187Z,73.31
2018-07-17T19:23:54.577Z,73.37
2018-07-17T19:26:24.029Z,74.19
2018-07-17T19:28:53.193Z,73.40
2018-07-17T19:31:22.357Z,74.07
2018-07-17T19:33:51.778Z,72.85
2018-07-17T19:36:21.209Z,73.95
2018-07-17T19:38:50.920Z,74.07
2018-07-17T19:41:20.368Z,73.97
2018-07-17T19:43:50.461Z,73.96
2018-07-17T19:46:20.184Z,74.45
2018-07-17T19:48:49.929Z,75.58
2018-07-17T19:51:19.426Z,75.60
2018-07-17T19:53:49.421Z,75.32
2018-07-17T19:56:18.637Z,75.88
2018-07-17T19:58:48.168Z,76.11
2018-07-17T20:01:17.683Z,76.75
2018-07-17T20:03:47.220Z,76.32
2018-07-17T20:06:16.774Z,75.92
2018-07-17T20:08:46.223Z,76.02
2018-07-17T20:11:15.700Z,76.30
2018-07-17T20:13:45.176Z,76.08
2018-07-17T20:16:15.979Z,75.13
2018-07-17T20:18:45.494Z,75.08
2018-07-17T20:21:14.961Z,74.85
2018-07-17T20:23:44.521Z,75.49
2018-07-17T20:26:13.984Z,75.68
2018-07-17T20:28:43.486Z,75.22
2018-07-17T20:31:12.934Z,74.93
2018-07-17T20:33:42.487Z,75.44
2018-07-17T20:36:11.904Z,75.20
2018-07-17T20:38:41.520Z,75.60
2018-07-17T20:41:10.984Z,74.93
2018-07-17T20:43:40.412Z,74.77
2018-07-17T20:46:09.946Z,75.55
2018-07-17T20:48:39.413Z,75.15
2018-07-17T20:51:09.873Z,75.37
2018-07-17T20:53:39.522Z,75.43
2018-07-17T20:56:09.513Z,76.52
2018-07-17T20:58:39.040Z,77.54
2018-07-17T21:01:08.702Z,77.50
2018-07-17T21:03:38.236Z,78.27
2018-07-17T21:06:08.220Z,78.26
2018-07-17T21:08:37.669Z,78.06
2018-07-17T21:11:07.094Z,78.84
2018-07-17T21:13:36.628Z,78.41
2018-07-17T21:16:06.943Z,78.64
2018-07-17T21:18:36.449Z,79.60
2018-07-17T21:21:05.834Z,79.09
2018-07-17T21:23:35.472Z,79.82
2018-07-17T21:26:04.992Z,80.13
2018-07-17T21:28:34.605Z,79.92
2018-07-17T21:31:04.080Z,79.75
2018-07-17T21:33:33.545Z,80.14
2018-07-17T21:36:03.071Z,80.42
2018-07-17T21:38:32.699Z,80.37
2018-07-17T21:41:01.787Z,80.38
2018-07-17T21:43:31.323Z,80.72
2018-07-17T21:46:00.773Z,81.78
2018-07-17T21:48:30.248Z,82.17
2018-07-17T21:50:59.783Z,81.54
2018-07-17T21:53:29.184Z,81.74
2018-07-17T21:55:58.607Z,81.58
2018-07-17T21:58:28.044Z,82.31
2018-07-17T22:00:57.886Z,82.43
2018-07-17T22:03:27.816Z,82.08
2018-07-17T22:05:57.261Z,82.26
2018-07-17T22:08:26.700Z,82.96
2018-07-17T22:10:56.650Z,83.29
2018-07-17T22:13:26.602Z,83.72
2018-07-17T22:15:55.726Z,83.71
2018-07-17T22:18:25.213Z,83.90
2018-07-17T22:20:54.384Z,84.31
2018-07-17T22:23:23.817Z,84.32
2018-07-17T22:25:53.202Z,84.66
2018-07-17T22:28:22.652Z,84.54
2018-07-17T22:30:52.137Z,84.70
2018-07-17T22:33:21.630Z,85.45
2018-07-17T22:35:51.158Z,85.28
2018-07-17T22:38:20.554Z,84.92
2018-07-17T22:40:49.651Z,85.93
2018-07-17T22:43:19.133Z,86.28
2018-07-17T22:45:48.620Z,85.78
2018-07-17T22:48:18.067Z,86.17
2018-07-17T22:50:47.711Z,85.88
2018-07-17T22:53:17.072Z,86.63
2018-07-17T22:55:46.596Z,86.20
2018-07-17T22:58:16.338Z,86.61
2018-07-17T23:00:45.780Z,86.64
2018-07-17T23:03:15.227Z,86.44
2018-07-17T23:05:44.646Z,87.01
2018-07-17T23:08:14.108Z,87.40
2018-07-17T23:10:43.570Z,86.76
2018-07-17T23:13:13.010Z,87.74
2018-07-17T23:15:42.555Z,87.78
2018-07-17T23:18:12.065Z,87.31
2018-07-17T23:20:41.488Z,87.94
2018-07-17T23:23:11.000Z,88.03
2018-07-17T23:25:40.392Z,88.09
2018-07-17T23:28:09.853Z,87.60
2018-07-17T23:30:40.271Z,88.03
2018-07-17T23:33:09.723Z,87.64
2018-07-17T23:35:39.078Z,88.34
2018-07-17T23:38:08.508Z,88.53
2018-07-17T23:40:37.934Z,88.57
2018-07-17T23:43:07.458Z,88.38
2018-07-17T23:45:36.864Z,88.43
2018-07-17T23:48:06.265Z,89.13
2018-07-17T23:50:35.664Z,88.43
2018-07-17T23:53:05.161Z,89.19
2018-07-17T23:55:34.546Z,88.78
2018-07-17T23:58:04.062Z,88.54
